createdAt,value
2017-07-29T00:00:31.449Z,14.10
2017-07-29T00:02:59.180Z,14.10
2017-07-29T00:05:27.377Z,14.10
2017-07-29T00:07:55.044Z,14.10
2017-07-29T00:10:23.020Z,14.10
2017-07-29T00:12:50.717Z,14.10
2017-07-29T00:15:18.409Z,14.20
2017-07-29T00:17:46.924Z,14.20
2017-07-29T00:20:14.750Z,14.20
2017-07-29T00:22:42.427Z,14.20
2017-07-29T00:25:10.151Z,14.20
2017-07-29T00:27:37.821Z,14.20
2017-07-29T00:30:05.535Z,14.20
2017-07-29T00:32:33.837Z,14.20
2017-07-29T00:35:02.957Z,14.10
2017-07-29T00:37:30.635Z,14.10
2017-07-29T00:39:58.309Z,14.10
2017-07-29T00:42:26.501Z,14.10
2017-07-29T00:44:54.198Z,14.00
2017-07-29T00:47:22.663Z,13.90
2017-07-29T00:49:50.341Z,13.90
2017-07-29T00:52:18.419Z,13.90
2017-07-29T00:54:47.752Z,13.90
2017-07-29T00:57:15.456Z,13.90
2017-07-29T00:59:43.154Z,13.90
2017-07-29T01:02:11.106Z,13.90
2017-07-29T01:04:40.163Z,13.90
2017-07-29T01:07:08.520Z,13.90
2017-07-29T01:09:36.221Z,13.90
2017-07-29T01:12:03.891Z,13.80
2017-07-29T01:14:31.578Z,13.80
2017-07-29T01:16:59.272Z,13.80
2017-07-29T01:19:27.674Z,13.70
2017-07-29T01:21:56.204Z,13.60
2017-07-29T01:24:23.921Z,13.60
2017-07-29T01:26:51.622Z,13.60
2017-07-29T01:29:28.865Z,13.60
2017-07-29T01:31:56.574Z,13.60
2017-07-29T01:34:25.079Z,13.50
2017-07-29T01:37:03.549Z,13.40
2017-07-29T01:39:38.647Z,13.50
2017-07-29T01:42:06.407Z,13.40
2017-07-29T01:44:38.238Z,13.30
2017-07-29T01:47:12.969Z,13.30
2017-07-29T01:49:41.801Z,13.20
2017-07-29T01:52:13.084Z,13.10
2017-07-29T01:54:44.971Z,13.00
2017-07-29T01:57:14.676Z,13.00
2017-07-29T01:59:46.268Z,13.00
2017-07-29T02:02:14.073Z,12.90
2017-07-29T02:04:42.132Z,12.90
2017-07-29T02:07:12.933Z,12.90
2017-07-29T02:09:41.182Z,12.90
2017-07-29T02:12:09.275Z,12.90
2017-07-29T02:14:38.006Z,12.80
2017-07-29T02:17:06.140Z,12.80
2017-07-29T02:19:39.848Z,12.80
2017-07-29T02:24:41.892Z,12.70
2017-07-29T02:27:11.955Z,12.70
2017-07-29T02:29:40.847Z,12.70
2017-07-29T02:32:11.248Z,12.60
2017-07-29T02:34:42.728Z,12.60
2017-07-29T02:37:21.983Z,12.60
2017-07-29T02:39:56.774Z,12.50
2017-07-29T02:47:44.025Z,12.40
2017-07-29T02:50:14.405Z,12.40
2017-07-29T02:52:50.940Z,12.30
2017-07-29T02:55:31.284Z,12.30
2017-07-29T03:03:43.469Z,12.30
2017-07-29T03:06:11.377Z,12.30
2017-07-29T03:24:03.731Z,12.00
2017-07-29T03:26:32.139Z,11.90
2017-07-29T03:28:59.753Z,11.90
2017-07-29T03:31:28.720Z,11.90
2017-07-29T03:33:56.310Z,11.90
2017-07-29T03:36:23.924Z,11.90
2017-07-29T03:38:51.574Z,11.90
2017-07-29T03:41:19.178Z,11.90
2017-07-29T03:43:46.782Z,11.90
2017-07-29T03:46:14.391Z,11.90
2017-07-29T03:48:41.987Z,11.90
2017-07-29T03:51:09.574Z,11.90
2017-07-29T03:53:37.202Z,11.90
2017-07-29T03:56:04.805Z,11.80
2017-07-29T03:58:32.390Z,11.80
2017-07-29T04:01:04.469Z,11.80
2017-07-29T04:03:32.184Z,11.80
2017-07-29T04:05:59.802Z,11.80
2017-07-29T04:08:27.410Z,11.80
2017-07-29T04:10:55.019Z,11.80
2017-07-29T04:13:23.359Z,11.80
2017-07-29T04:15:51.912Z,11.80
2017-07-29T04:18:19.510Z,11.90
2017-07-29T04:20:47.143Z,11.90
2017-07-29T04:23:14.787Z,12.00
2017-07-29T04:25:43.170Z,12.20
2017-07-29T04:28:12.504Z,12.30
2017-07-29T04:30:41.116Z,12.30
2017-07-29T04:33:08.744Z,12.40
2017-07-29T04:35:36.326Z,12.50
2017-07-29T04:38:04.357Z,12.50
2017-07-29T04:40:31.955Z,12.70
2017-07-29T04:42:59.540Z,12.60
2017-07-29T04:45:27.152Z,12.70
2017-07-29T04:47:54.759Z,12.70
2017-07-29T04:50:22.351Z,12.70
2017-07-29T04:52:49.945Z,12.70
2017-07-29T04:55:18.559Z,12.70
2017-07-29T04:57:46.918Z,12.70
2017-07-29T05:00:14.506Z,12.70
2017-07-29T05:02:42.898Z,12.90
2017-07-29T05:05:10.491Z,12.90
2017-07-29T05:07:38.128Z,13.00
2017-07-29T05:10:05.770Z,13.10
2017-07-29T05:12:33.369Z,13.30
2017-07-29T05:15:00.991Z,13.40
2017-07-29T05:17:28.568Z,13.60
2017-07-29T05:19:56.181Z,13.90
2017-07-29T05:22:23.920Z,14.10
2017-07-29T05:24:52.250Z,14.50
2017-07-29T05:27:19.865Z,14.50
2017-07-29T05:29:48.216Z,15.00
2017-07-29T05:32:15.892Z,15.00
2017-07-29T05:34:44.280Z,15.60
2017-07-29T05:37:11.869Z,15.60
2017-07-29T05:39:39.814Z,16.30
2017-07-29T05:42:07.401Z,16.90
2017-07-29T05:44:35.758Z,17.40
2017-07-29T05:47:03.381Z,17.40
2017-07-29T05:49:30.997Z,17.80
2017-07-29T05:51:58.573Z,18.30
2017-07-29T05:54:26.968Z,18.80
2017-07-29T05:56:55.434Z,18.80
2017-07-29T05:59:23.833Z,18.80
2017-07-29T06:01:52.254Z,18.80
2017-07-29T06:04:19.846Z,18.70
2017-07-29T06:06:47.447Z,18.50
2017-07-29T06:09:15.050Z,18.40
2017-07-29T06:11:42.670Z,18.30
2017-07-29T06:14:11.035Z,18.30
2017-07-29T06:16:38.664Z,18.30
2017-07-29T06:19:08.716Z,18.30
2017-07-29T06:21:36.315Z,18.40
2017-07-29T06:24:03.879Z,18.60
2017-07-29T06:26:32.493Z,18.60
2017-07-29T06:29:00.082Z,18.60
2017-07-29T06:31:27.669Z,18.70
2017-07-29T06:33:55.281Z,18.70
2017-07-29T06:36:22.877Z,18.80
2017-07-29T06:38:50.488Z,18.90
2017-07-29T06:41:19.850Z,19.00
2017-07-29T06:43:47.466Z,19.00
2017-07-29T06:46:15.102Z,19.20
2017-07-29T06:48:42.728Z,19.30
2017-07-29T06:51:10.342Z,19.50
2017-07-29T06:53:37.963Z,19.70
2017-07-29T06:56:05.566Z,19.90
2017-07-29T06:58:33.190Z,20.00
2017-07-29T07:01:00.827Z,20.00
2017-07-29T07:03:29.190Z,20.00
2017-07-29T07:05:56.869Z,20.00
2017-07-29T07:08:25.278Z,20.10
2017-07-29T07:10:52.913Z,20.10
2017-07-29T07:13:21.307Z,20.10
2017-07-29T07:15:48.915Z,20.10
2017-07-29T07:18:16.499Z,20.20
2017-07-29T07:20:44.142Z,20.50
2017-07-29T07:23:11.740Z,21.10
2017-07-29T07:25:39.372Z,22.20
2017-07-29T07:28:06.976Z,22.80
2017-07-29T07:30:34.626Z,23.20
2017-07-29T07:33:02.416Z,23.90
2017-07-29T07:35:30.074Z,24.60
2017-07-29T07:37:57.827Z,25.10
2017-07-29T07:40:25.649Z,25.30
2017-07-29T07:42:53.248Z,25.50
2017-07-29T07:45:20.876Z,25.50
2017-07-29T07:47:48.509Z,25.90
2017-07-29T07:50:16.192Z,26.70
2017-07-29T07:52:43.958Z,27.20
2017-07-29T07:55:13.387Z,27.50
2017-07-29T07:57:41.119Z,27.70
2017-07-29T08:00:08.684Z,27.70
2017-07-29T08:02:36.297Z,27.10
2017-07-29T08:05:04.663Z,26.40
2017-07-29T08:07:32.294Z,26.30
2017-07-29T08:09:59.919Z,26.40
2017-07-29T08:12:27.506Z,27.10
2017-07-29T08:14:55.116Z,27.20
2017-07-29T08:17:22.704Z,27.30
2017-07-29T08:19:50.326Z,27.90
2017-07-29T08:22:17.934Z,28.10
2017-07-29T08:24:45.528Z,28.10
2017-07-29T08:27:13.129Z,28.10
2017-07-29T08:29:40.724Z,28.10
2017-07-29T08:32:09.094Z,27.70
2017-07-29T08:34:36.738Z,27.70
2017-07-29T08:37:04.363Z,28.10
2017-07-29T08:39:31.964Z,28.30
2017-07-29T08:41:59.541Z,29.10
2017-07-29T08:44:27.169Z,29.50
2017-07-29T08:46:54.773Z,29.10
2017-07-29T08:49:22.386Z,29.80
2017-07-29T08:51:50.800Z,30.60
2017-07-29T08:54:18.380Z,30.60
2017-07-29T08:56:45.952Z,30.50
2017-07-29T08:59:13.567Z,30.80
2017-07-29T09:01:41.138Z,30.10
2017-07-29T09:04:09.449Z,28.60
2017-07-29T09:06:37.980Z,28.10
2017-07-29T09:09:05.565Z,28.10
2017-07-29T09:11:33.194Z,29.00
2017-07-29T09:14:00.780Z,29.60
2017-07-29T09:16:28.375Z,29.30
2017-07-29T09:18:55.987Z,29.50
2017-07-29T09:21:23.581Z,30.20
2017-07-29T09:23:51.214Z,31.10
2017-07-29T09:26:18.825Z,31.70
2017-07-29T09:28:46.434Z,32.40
2017-07-29T09:31:14.079Z,31.60
2017-07-29T09:33:41.703Z,30.90
2017-07-29T09:36:10.046Z,31.40
2017-07-29T09:38:37.658Z,31.40
2017-07-29T09:41:06.002Z,32.20
2017-07-29T09:43:33.572Z,32.20
2017-07-29T09:46:01.215Z,32.40
2017-07-29T09:48:28.811Z,32.00
2017-07-29T09:50:56.378Z,31.90
2017-07-29T09:53:24.994Z,31.30
2017-07-29T09:55:53.351Z,29.90
2017-07-29T09:58:20.977Z,29.90
2017-07-29T10:00:48.594Z,29.00
2017-07-29T10:03:16.193Z,28.30
2017-07-29T10:05:44.775Z,28.20
2017-07-29T10:08:13.197Z,28.50
2017-07-29T10:10:40.843Z,28.60
2017-07-29T10:13:08.437Z,28.90
2017-07-29T10:15:36.028Z,29.00
2017-07-29T10:18:04.413Z,29.20
2017-07-29T10:20:32.776Z,29.40
2017-07-29T10:23:00.397Z,29.40
2017-07-29T10:25:27.993Z,29.80
2017-07-29T10:27:55.594Z,30.40
2017-07-29T10:30:23.992Z,31.00
2017-07-29T10:32:51.577Z,30.90
2017-07-29T10:35:19.209Z,30.20
2017-07-29T10:37:47.583Z,30.80
2017-07-29T10:40:15.944Z,32.00
2017-07-29T10:42:43.567Z,32.00
2017-07-29T10:45:11.166Z,33.10
2017-07-29T10:47:38.753Z,33.60
2017-07-29T10:50:06.389Z,33.50
2017-07-29T10:52:34.243Z,33.80
2017-07-29T10:55:01.883Z,33.90
2017-07-29T10:57:30.381Z,37.00
2017-07-29T10:59:57.984Z,36.80
2017-07-29T11:02:25.586Z,38.00
2017-07-29T11:04:53.973Z,37.90
2017-07-29T11:07:22.319Z,37.70
2017-07-29T11:09:49.973Z,37.60
2017-07-29T11:12:17.576Z,36.50
2017-07-29T11:14:45.157Z,35.10
2017-07-29T11:17:13.560Z,35.60
2017-07-29T11:19:41.144Z,35.60
2017-07-29T11:22:08.750Z,35.30
2017-07-29T11:24:36.355Z,35.80
2017-07-29T11:27:03.940Z,35.90
2017-07-29T11:29:31.578Z,35.80
2017-07-29T11:31:59.898Z,35.40
2017-07-29T11:34:31.403Z,35.40
2017-07-29T11:36:59.767Z,35.10
2017-07-29T11:39:27.349Z,35.10
2017-07-29T11:41:54.940Z,35.40
2017-07-29T11:44:22.935Z,36.10
2017-07-29T11:46:50.514Z,35.80
2017-07-29T11:49:18.158Z,36.00
2017-07-29T11:51:45.761Z,36.50
2017-07-29T11:54:13.359Z,35.80
2017-07-29T11:56:40.957Z,35.80
2017-07-29T11:59:08.561Z,35.80
2017-07-29T12:01:37.166Z,35.60
2017-07-29T12:04:05.522Z,35.80
2017-07-29T12:06:33.216Z,35.80
2017-07-29T12:09:01.594Z,35.20
2017-07-29T12:11:29.172Z,35.20
2017-07-29T12:13:57.569Z,35.10
2017-07-29T12:16:27.209Z,35.90
2017-07-29T12:18:54.957Z,35.90
2017-07-29T12:21:23.862Z,35.50
2017-07-29T12:23:51.631Z,34.60
2017-07-29T12:26:19.212Z,35.00
2017-07-29T12:29:04.984Z,34.70
2017-07-29T12:31:56.048Z,34.10
2017-07-29T12:34:23.655Z,32.80
2017-07-29T12:36:51.308Z,32.90
2017-07-29T12:39:18.903Z,34.20
2017-07-29T12:41:46.504Z,34.90
2017-07-29T12:44:14.881Z,36.10
2017-07-29T12:46:43.256Z,36.40
2017-07-29T12:49:10.859Z,36.40
2017-07-29T12:51:38.455Z,36.30
2017-07-29T12:54:06.046Z,36.10
2017-07-29T12:56:33.628Z,36.30
2017-07-29T12:59:01.206Z,35.90
2017-07-29T13:01:29.597Z,36.00
2017-07-29T13:03:57.195Z,36.00
2017-07-29T13:06:24.776Z,35.40
2017-07-29T13:08:53.243Z,35.00
2017-07-29T13:11:20.835Z,35.50
2017-07-29T13:13:48.443Z,35.30
2017-07-29T13:16:16.075Z,35.60
2017-07-29T13:18:43.666Z,36.30
2017-07-29T13:21:11.254Z,36.90
2017-07-29T13:23:38.867Z,37.90
2017-07-29T13:26:06.475Z,37.80
2017-07-29T13:28:34.102Z,36.40
2017-07-29T13:31:01.698Z,35.50
2017-07-29T13:33:29.307Z,34.90
2017-07-29T13:35:56.944Z,34.60
2017-07-29T13:38:24.999Z,33.80
2017-07-29T13:40:53.370Z,33.30
2017-07-29T13:43:20.969Z,33.30
2017-07-29T13:45:48.538Z,33.30
2017-07-29T13:48:16.227Z,32.90
2017-07-29T13:50:43.836Z,32.80
2017-07-29T13:53:12.243Z,32.90
2017-07-29T13:55:39.849Z,32.90
2017-07-29T13:58:07.995Z,33.30
2017-07-29T14:00:36.415Z,33.90
2017-07-29T14:03:04.766Z,34.30
2017-07-29T14:05:33.069Z,33.80
2017-07-29T14:08:01.026Z,32.90
2017-07-29T14:10:28.762Z,32.40
2017-07-29T14:12:57.153Z,31.60
2017-07-29T14:15:25.515Z,30.90
2017-07-29T14:17:53.890Z,30.50
2017-07-29T14:20:21.519Z,30.40
2017-07-29T14:22:49.143Z,30.10
2017-07-29T14:25:17.524Z,29.50
2017-07-29T14:27:45.099Z,29.50
2017-07-29T14:30:13.491Z,28.80
2017-07-29T14:32:41.123Z,28.70
2017-07-29T14:35:09.504Z,28.40
2017-07-29T14:37:37.094Z,28.30
2017-07-29T14:40:05.456Z,28.10
2017-07-29T14:42:33.051Z,28.10
2017-07-29T14:45:01.422Z,28.10
2017-07-29T14:47:29.802Z,28.10
2017-07-29T14:49:58.172Z,28.10
2017-07-29T14:52:26.531Z,28.10
2017-07-29T14:54:54.173Z,28.10
2017-07-29T14:57:21.786Z,28.10
2017-07-29T14:59:49.422Z,28.20
2017-07-29T15:02:17.018Z,28.20
2017-07-29T15:04:44.591Z,28.40
2017-07-29T15:07:12.203Z,28.60
2017-07-29T15:09:39.815Z,29.00
2017-07-29T15:12:07.393Z,29.70
2017-07-29T15:14:35.778Z,32.50
2017-07-29T15:17:04.123Z,34.20
2017-07-29T15:19:31.704Z,34.20
2017-07-29T15:21:59.329Z,35.60
2017-07-29T15:24:26.910Z,37.10
2017-07-29T15:26:54.475Z,38.10
2017-07-29T15:29:22.064Z,38.40
2017-07-29T15:31:49.644Z,38.00
2017-07-29T15:34:17.306Z,37.90
2017-07-29T15:36:44.914Z,38.00
2017-07-29T15:39:12.498Z,38.50
2017-07-29T15:41:40.092Z,39.40
2017-07-29T15:44:08.708Z,39.00
2017-07-29T15:46:36.287Z,38.90
2017-07-29T15:49:04.668Z,38.40
2017-07-29T15:51:33.015Z,38.30
2017-07-29T15:54:00.608Z,38.20
2017-07-29T15:56:29.000Z,37.00
2017-07-29T15:58:56.593Z,37.00
2017-07-29T16:01:24.196Z,36.80
2017-07-29T16:03:51.854Z,37.00
2017-07-29T16:06:20.235Z,37.60
2017-07-29T16:08:48.001Z,37.60
2017-07-29T16:11:15.622Z,37.60
2017-07-29T16:13:43.227Z,38.10
2017-07-29T16:16:10.820Z,38.70
2017-07-29T16:18:38.418Z,38.80
2017-07-29T16:21:06.011Z,38.90
2017-07-29T16:23:33.604Z,39.20
2017-07-29T16:26:01.236Z,39.40
2017-07-29T16:28:28.816Z,39.10
2017-07-29T16:30:56.415Z,39.10
2017-07-29T16:33:24.775Z,38.40
2017-07-29T16:35:52.355Z,38.30
2017-07-29T16:38:19.911Z,37.60
2017-07-29T16:40:47.491Z,37.40
2017-07-29T16:43:15.103Z,36.60
2017-07-29T16:45:42.693Z,35.40
2017-07-29T16:48:10.266Z,34.20
2017-07-29T16:50:37.855Z,32.40
2017-07-29T16:53:05.439Z,31.10
2017-07-29T16:55:33.824Z,29.50
2017-07-29T16:58:02.177Z,28.70
2017-07-29T17:00:29.765Z,28.60
2017-07-29T17:02:58.139Z,27.70
2017-07-29T17:05:26.487Z,27.40
2017-07-29T17:07:54.040Z,27.30
2017-07-29T17:10:21.635Z,27.00
2017-07-29T17:12:49.225Z,26.70
2017-07-29T17:15:16.831Z,26.50
2017-07-29T17:17:44.432Z,26.20
2017-07-29T17:20:12.012Z,26.00
2017-07-29T17:22:39.629Z,25.70
2017-07-29T17:25:07.207Z,25.60
2017-07-29T17:27:34.809Z,25.40
2017-07-29T17:30:04.173Z,25.20
2017-07-29T17:32:31.754Z,25.20
2017-07-29T17:35:00.174Z,25.10
2017-07-29T17:37:28.530Z,24.80
2017-07-29T17:39:56.117Z,24.80
2017-07-29T17:42:24.485Z,24.50
2017-07-29T17:44:52.100Z,24.50
2017-07-29T17:47:19.660Z,24.50
2017-07-29T17:49:47.271Z,24.30
2017-07-29T17:52:15.668Z,24.30
2017-07-29T17:54:43.261Z,24.20
2017-07-29T17:57:11.621Z,23.90
2017-07-29T17:59:39.218Z,23.90
2017-07-29T18:02:06.833Z,23.80
2017-07-29T18:04:34.425Z,23.50
2017-07-29T18:07:02.768Z,23.10
2017-07-29T18:09:30.378Z,23.10
2017-07-29T18:11:58.744Z,22.90
2017-07-29T18:14:27.116Z,22.80
2017-07-29T18:16:54.728Z,22.80
2017-07-29T18:19:22.559Z,22.70
2017-07-29T18:21:50.196Z,22.60
2017-07-29T18:24:17.808Z,22.40
2017-07-29T18:26:46.175Z,22.20
2017-07-29T18:29:13.768Z,22.10
2017-07-29T18:31:41.383Z,22.10
2017-07-29T18:34:08.941Z,22.00
2017-07-29T18:36:36.545Z,21.90
2017-07-29T18:39:04.942Z,21.60
2017-07-29T18:41:33.307Z,21.50
2017-07-29T18:44:00.905Z,21.40
2017-07-29T18:46:28.501Z,21.30
2017-07-29T18:48:56.104Z,21.10
2017-07-29T18:51:23.694Z,20.90
2017-07-29T18:53:51.273Z,20.70
2017-07-29T18:56:18.858Z,20.50
2017-07-29T18:58:46.480Z,20.40
2017-07-29T19:01:14.817Z,20.30
2017-07-29T19:03:42.395Z,20.20
2017-07-29T19:06:10.005Z,20.10
2017-07-29T19:08:37.583Z,20.10
2017-07-29T19:11:05.173Z,20.00
2017-07-29T19:13:32.743Z,19.90
2017-07-29T19:16:00.308Z,19.80
2017-07-29T19:18:27.906Z,19.60
2017-07-29T19:20:55.524Z,19.70
2017-07-29T19:23:23.123Z,19.50
2017-07-29T19:25:50.742Z,19.50
2017-07-29T19:28:18.352Z,19.40
2017-07-29T19:30:45.987Z,19.30
2017-07-29T19:33:13.607Z,19.10
2017-07-29T19:35:41.965Z,18.90
2017-07-29T19:38:09.580Z,18.80
2017-07-29T19:40:37.178Z,18.80
2017-07-29T19:43:04.771Z,18.70
2017-07-29T19:45:32.358Z,18.60
2017-07-29T19:48:00.699Z,18.40
2017-07-29T19:50:28.302Z,18.40
2017-07-29T19:52:56.677Z,18.20
2017-07-29T19:55:24.307Z,18.10
2017-07-29T19:57:51.887Z,18.10
2017-07-29T20:00:19.461Z,18.00
2017-07-29T20:02:48.094Z,17.90
2017-07-29T20:05:15.653Z,18.00
2017-07-29T20:07:43.251Z,17.90
2017-07-29T20:10:10.861Z,18.00
2017-07-29T20:12:38.445Z,17.90
2017-07-29T20:15:06.800Z,17.70
2017-07-29T20:17:34.401Z,17.70
2017-07-29T20:20:02.002Z,17.70
2017-07-29T20:22:29.572Z,17.70
2017-07-29T20:24:57.174Z,17.70
2017-07-29T20:27:25.512Z,17.70
2017-07-29T20:29:53.064Z,17.70
2017-07-29T20:32:21.649Z,17.60
2017-07-29T20:34:49.426Z,17.60
2017-07-29T20:37:17.015Z,17.50
2017-07-29T20:39:44.605Z,17.40
2017-07-29T20:42:12.202Z,17.40
2017-07-29T20:44:39.806Z,17.30
2017-07-29T20:47:07.373Z,17.30
2017-07-29T20:49:34.954Z,17.30
2017-07-29T20:52:02.558Z,17.40
2017-07-29T20:54:30.130Z,17.30
2017-07-29T20:56:57.698Z,17.30
2017-07-29T20:59:25.303Z,17.30
2017-07-29T21:01:52.866Z,17.40
2017-07-29T21:04:20.778Z,17.40
2017-07-29T21:06:49.173Z,17.30
2017-07-29T21:09:16.757Z,17.30
2017-07-29T21:11:44.348Z,17.40
2017-07-29T21:14:12.265Z,17.30
2017-07-29T21:16:40.612Z,17.20
2017-07-29T21:19:08.275Z,17.20
2017-07-29T21:21:35.885Z,17.00
2017-07-29T21:24:04.720Z,16.90
2017-07-29T21:26:32.334Z,16.80
2017-07-29T21:29:00.712Z,16.90
2017-07-29T21:31:28.336Z,16.90
2017-07-29T21:33:55.935Z,16.90
2017-07-29T21:36:23.535Z,16.90
2017-07-29T21:38:51.113Z,16.80
2017-07-29T21:41:18.680Z,16.70
2017-07-29T21:43:46.269Z,16.70
2017-07-29T21:46:13.869Z,16.60
2017-07-29T21:48:42.220Z,16.70
2017-07-29T21:51:09.802Z,16.60
2017-07-29T21:53:37.403Z,16.70
2017-07-29T21:56:04.980Z,16.60
2017-07-29T21:58:32.592Z,16.70
2017-07-29T22:01:00.184Z,16.70
2017-07-29T22:03:27.748Z,16.70
2017-07-29T22:05:55.380Z,16.60
2017-07-29T22:08:22.975Z,16.60
2017-07-29T22:10:51.333Z,16.50
2017-07-29T22:13:18.938Z,16.50
2017-07-29T22:15:46.510Z,16.40
2017-07-29T22:18:14.127Z,16.30
2017-07-29T22:20:41.697Z,16.10
2017-07-29T22:23:09.277Z,16.10
2017-07-29T22:25:36.876Z,16.00
2017-07-29T22:28:04.440Z,16.00
2017-07-29T22:30:32.054Z,15.90
2017-07-29T22:32:59.622Z,16.00
2017-07-29T22:35:27.198Z,16.00
2017-07-29T22:37:54.799Z,16.00
2017-07-29T22:40:22.391Z,15.90
2017-07-29T22:42:49.952Z,15.90
2017-07-29T22:45:17.566Z,15.90
2017-07-29T22:47:45.120Z,15.80
2017-07-29T22:50:12.701Z,15.80
2017-07-29T22:52:41.084Z,15.70
2017-07-29T22:55:09.449Z,15.60
2017-07-29T22:57:37.038Z,15.60
2017-07-29T23:00:05.740Z,15.50
2017-07-29T23:02:33.334Z,15.50
2017-07-29T23:05:00.931Z,15.50
2017-07-29T23:07:28.541Z,15.50
2017-07-29T23:09:56.145Z,15.50
2017-07-29T23:12:23.733Z,15.60
2017-07-29T23:14:51.334Z,15.60
2017-07-29T23:17:18.913Z,15.70
2017-07-29T23:19:46.506Z,15.70
2017-07-29T23:22:15.141Z,15.60
2017-07-29T23:24:42.758Z,15.50
2017-07-29T23:27:10.388Z,15.50
2017-07-29T23:29:37.964Z,15.40
2017-07-29T23:32:05.542Z,15.40
2017-07-29T23:34:33.130Z,15.30
2017-07-29T23:37:00.729Z,15.30
2017-07-29T23:39:28.352Z,15.30
2017-07-29T23:41:55.922Z,15.30
2017-07-29T23:44:23.525Z,15.40
2017-07-29T23:46:51.294Z,15.50
2017-07-29T23:49:19.647Z,15.60
2017-07-29T23:51:47.234Z,15.60
2017-07-29T23:54:14.853Z,15.60
2017-07-29T23:56:42.420Z,15.60
2017-07-29T23:59:09.990Z,15.60
